createdAt,value
2022-10-11T00:00:38.850Z,7.08
2022-10-11T00:01:38.900Z,7.08
2022-10-11T00:02:38.850Z,7.07
2022-10-11T00:03:38.858Z,7.05
2022-10-11T00:04:38.863Z,7.05
2022-10-11T00:05:38.871Z,7.06
2022-10-11T00:06:38.885Z,7.06
2022-10-11T00:07:38.897Z,7.05
2022-10-11T00:08:38.909Z,7.02
2022-10-11T00:09:38.920Z,7.04
2022-10-11T00:10:38.935Z,7.08
2022-10-11T00:11:38.947Z,7.05
2022-10-11T00:12:38.960Z,7.04
2022-10-11T00:13:38.969Z,7.01
2022-10-11T00:14:38.974Z,6.99
2022-10-11T00:15:38.989Z,6.97
2022-10-11T00:16:39.000Z,6.94
2022-10-11T00:17:39.005Z,6.93
2022-10-11T00:18:39.021Z,6.94
2022-10-11T00:19:39.028Z,6.94
2022-10-11T00:20:39.043Z,6.92
2022-10-11T00:21:39.050Z,6.92
2022-10-11T00:22:39.065Z,6.89
2022-10-11T00:23:39.075Z,6.91
2022-10-11T00:24:39.089Z,6.92
2022-10-11T00:25:39.099Z,6.92
2022-10-11T00:26:42.118Z,6.91
2022-10-11T00:27:39.126Z,6.87
2022-10-11T00:28:39.192Z,6.87
2022-10-11T00:29:39.135Z,6.86
2022-10-11T00:30:39.150Z,6.89
2022-10-11T00:31:39.159Z,6.90
2022-10-11T00:32:39.174Z,6.91
2022-10-11T00:33:39.189Z,6.92
2022-10-11T00:34:39.194Z,6.91
2022-10-11T00:35:39.201Z,6.92
2022-10-11T00:36:39.219Z,6.90
2022-10-11T00:37:39.226Z,6.89
2022-10-11T00:38:39.232Z,6.88
2022-10-11T00:39:39.245Z,6.89
2022-10-11T00:40:39.248Z,6.89
2022-10-11T00:58:39.777Z,6.78
2022-10-11T00:59:39.436Z,6.77
2022-10-11T01:00:39.437Z,6.77
2022-10-11T01:01:39.481Z,6.80
2022-10-11T01:02:39.452Z,6.82
2022-10-11T01:03:39.462Z,6.82
2022-10-11T01:04:39.465Z,6.86
2022-10-11T01:05:39.472Z,6.90
2022-10-11T01:06:39.484Z,6.96
2022-10-11T01:07:39.490Z,6.98
2022-10-11T01:08:39.509Z,7.02
2022-10-11T01:09:39.518Z,7.03
2022-10-11T01:10:39.532Z,7.07
2022-10-11T01:11:39.541Z,7.12
2022-10-11T01:12:39.555Z,7.17
2022-10-11T01:13:39.563Z,7.26
2022-10-11T01:14:39.577Z,7.29
2022-10-11T01:15:39.591Z,7.35
2022-10-11T01:16:39.607Z,7.45
2022-10-11T01:17:39.614Z,7.47
2022-10-11T01:18:39.619Z,7.50
2022-10-11T01:19:39.629Z,7.50
2022-10-11T01:20:39.648Z,7.53
2022-10-11T01:21:39.659Z,7.55
2022-10-11T01:22:39.664Z,7.56
2022-10-11T01:23:39.676Z,7.59
2022-10-11T01:24:39.681Z,7.58
2022-10-11T01:25:39.697Z,7.58
2022-10-11T01:26:39.702Z,7.58
2022-10-11T01:27:39.710Z,7.59
2022-10-11T01:28:39.810Z,7.59
2022-10-11T01:29:39.734Z,7.58
2022-10-11T01:30:39.740Z,7.56
2022-10-11T01:31:39.767Z,7.55
2022-10-11T01:32:39.775Z,7.52
2022-10-11T01:33:39.786Z,7.48
2022-10-11T01:34:39.800Z,7.44
2022-10-11T01:35:39.805Z,7.38
2022-10-11T01:36:39.811Z,7.32
2022-10-11T01:37:39.823Z,7.26
2022-10-11T01:38:39.836Z,7.23
2022-10-11T01:39:39.845Z,7.18
2022-10-11T01:40:39.852Z,7.13
2022-10-11T01:41:39.862Z,7.10
2022-10-11T01:42:39.868Z,7.07
2022-10-11T01:43:39.881Z,7.02
2022-10-11T01:44:39.890Z,6.99
2022-10-11T01:45:39.895Z,6.95
2022-10-11T01:46:39.911Z,6.96
2022-10-11T01:47:39.923Z,6.94
2022-10-11T01:48:39.938Z,6.91
2022-10-11T01:49:39.947Z,6.91
2022-10-11T01:50:39.960Z,6.91
2022-10-11T01:51:42.004Z,6.89
2022-10-11T01:52:39.981Z,6.86
2022-10-11T01:53:39.999Z,6.84
2022-10-11T01:55:04.324Z,6.82
2022-10-11T01:55:40.025Z,6.84
2022-10-11T01:56:40.046Z,6.80
2022-10-11T01:57:40.057Z,6.78
2022-10-11T01:58:40.067Z,6.77
2022-10-11T01:59:40.076Z,6.79
2022-10-11T02:00:40.090Z,6.75
2022-10-11T02:01:40.145Z,6.74
2022-10-11T02:02:40.115Z,6.70
2022-10-11T02:03:40.128Z,6.72
2022-10-11T02:04:40.134Z,6.68
2022-10-11T02:05:40.149Z,6.65
2022-10-11T02:06:40.158Z,6.63
2022-10-11T02:07:40.170Z,6.59
2022-10-11T02:08:40.183Z,6.57
2022-10-11T02:09:40.195Z,6.54
2022-10-11T02:10:40.201Z,6.54
2022-10-11T02:11:40.216Z,6.52
2022-10-11T02:12:40.225Z,6.51
2022-10-11T02:13:40.231Z,6.51
2022-10-11T02:14:40.247Z,6.48
2022-10-11T02:15:40.293Z,6.51
2022-10-11T02:16:40.284Z,6.51
2022-10-11T02:17:40.274Z,6.50
2022-10-11T02:18:40.290Z,6.50
2022-10-11T02:19:40.304Z,6.50
2022-10-11T02:20:40.316Z,6.51
2022-10-11T02:21:40.331Z,6.52
2022-10-11T02:22:40.348Z,6.53
2022-10-11T02:23:40.361Z,6.55
2022-10-11T02:24:40.364Z,6.61
2022-10-11T02:25:40.380Z,6.65
2022-10-11T02:26:40.385Z,6.67
2022-10-11T02:27:40.402Z,6.70
2022-10-11T02:28:40.465Z,6.66
2022-10-11T02:29:40.419Z,6.65
2022-10-11T02:30:40.430Z,6.64
2022-10-11T02:31:40.443Z,6.65
2022-10-11T02:32:40.452Z,6.64
2022-10-11T02:33:40.454Z,6.62
2022-10-11T02:34:40.465Z,6.62
2022-10-11T02:35:40.471Z,6.61
2022-10-11T02:36:40.487Z,6.60
2022-10-11T02:37:40.501Z,6.57
2022-10-11T02:38:40.512Z,6.53
2022-10-11T02:39:40.522Z,6.48
2022-10-11T02:40:40.535Z,6.45
2022-10-11T02:41:40.541Z,6.42
2022-10-11T02:42:40.551Z,6.40
2022-10-11T02:43:40.570Z,6.39
2022-10-11T02:44:40.581Z,6.40
2022-10-11T02:45:40.581Z,6.39
2022-10-11T02:46:40.593Z,6.38
2022-10-11T02:47:40.609Z,6.40
2022-10-11T02:48:40.616Z,6.39
2022-10-11T02:49:40.631Z,6.42
2022-10-11T02:50:40.648Z,6.36
2022-10-11T02:51:40.654Z,6.34
2022-10-11T02:52:40.659Z,6.34
2022-10-11T02:53:40.669Z,6.32
2022-10-11T02:54:40.678Z,6.30
2022-10-11T02:55:40.696Z,6.32
2022-10-11T02:56:40.705Z,6.30
2022-10-11T02:57:40.716Z,6.31
2022-10-11T02:58:40.736Z,6.29
2022-10-11T02:59:40.738Z,6.31
2022-10-11T03:00:40.745Z,6.28
2022-10-11T03:01:40.794Z,6.24
2022-10-11T03:02:40.763Z,6.24
2022-10-11T03:03:40.770Z,6.20
2022-10-11T03:04:40.775Z,6.22
2022-10-11T03:05:40.792Z,6.23
2022-10-11T03:06:40.805Z,6.22
2022-10-11T03:07:40.809Z,6.20
2022-10-11T03:08:40.815Z,6.20
2022-10-11T03:09:40.829Z,6.17
2022-10-11T03:10:40.861Z,6.15
2022-10-11T03:11:40.863Z,6.14
2022-10-11T03:12:40.867Z,6.14
2022-10-11T03:13:40.871Z,6.13
2022-10-11T03:14:40.878Z,6.13
2022-10-11T03:15:40.895Z,6.13
2022-10-11T03:16:40.901Z,6.15
2022-10-11T03:17:40.914Z,6.15
2022-10-11T03:18:40.933Z,6.15
2022-10-11T03:19:40.949Z,6.15
2022-10-11T03:20:40.955Z,6.20
2022-10-11T03:21:40.968Z,6.23
2022-10-11T03:22:40.973Z,6.24
2022-10-11T03:23:40.978Z,6.24
2022-10-11T03:24:40.984Z,6.25
2022-10-11T03:25:41.003Z,6.24
2022-10-11T03:26:41.019Z,6.22
2022-10-11T03:27:41.025Z,6.20
2022-10-11T03:28:41.125Z,6.22
2022-10-11T03:29:41.051Z,6.24
2022-10-11T03:30:41.067Z,6.27
2022-10-11T03:31:41.071Z,6.35
2022-10-11T03:32:41.077Z,6.42
2022-10-11T03:33:41.082Z,6.51
2022-10-11T03:34:41.088Z,6.57
2022-10-11T03:35:41.104Z,6.66
2022-10-11T03:36:41.109Z,6.73
2022-10-11T03:37:41.127Z,6.79
2022-10-11T03:38:41.136Z,6.84
2022-10-11T03:39:41.153Z,6.91
2022-10-11T03:40:41.156Z,6.96
2022-10-11T03:41:41.162Z,7.01
2022-10-11T03:42:41.175Z,7.05
2022-10-11T03:43:41.175Z,7.08
2022-10-11T03:44:41.187Z,7.13
2022-10-11T03:45:41.194Z,7.15
2022-10-11T03:46:41.201Z,7.17
2022-10-11T03:47:41.207Z,7.18
2022-10-11T03:48:41.213Z,7.20
2022-10-11T03:49:43.552Z,7.24
2022-10-11T03:50:41.239Z,7.30
2022-10-11T03:51:41.254Z,7.34
2022-10-11T03:52:41.263Z,7.38
2022-10-11T03:53:41.270Z,7.41
2022-10-11T03:54:41.299Z,7.44
2022-10-11T03:55:41.292Z,7.42
2022-10-11T03:56:41.319Z,7.40
2022-10-11T03:57:41.318Z,7.43
2022-10-11T03:58:41.330Z,7.46
2022-10-11T03:59:41.354Z,7.47
2022-10-11T04:00:41.359Z,7.48
2022-10-11T04:01:41.394Z,7.53
2022-10-11T04:02:41.374Z,7.55
2022-10-11T04:03:41.394Z,7.60
2022-10-11T04:04:41.399Z,7.60
2022-10-11T04:05:41.403Z,7.61
2022-10-11T04:06:41.419Z,7.66
2022-10-11T04:07:41.425Z,7.69
2022-10-11T04:08:41.437Z,7.70
2022-10-11T04:09:41.442Z,7.72
2022-10-11T04:10:41.449Z,7.73
2022-10-11T04:11:41.465Z,7.73
2022-10-11T04:12:41.472Z,7.69
2022-10-11T04:13:41.516Z,7.70
2022-10-11T04:14:41.495Z,7.69
2022-10-11T04:15:41.503Z,7.70
2022-10-11T04:16:41.507Z,7.68
2022-10-11T04:17:41.511Z,7.67
2022-10-11T04:18:41.520Z,7.66
2022-10-11T04:19:41.524Z,7.62
2022-10-11T04:20:41.539Z,7.57
2022-10-11T04:21:41.553Z,7.50
2022-10-11T04:22:41.568Z,7.42
2022-10-11T04:23:41.579Z,7.39
2022-10-11T04:24:41.597Z,7.34
2022-10-11T04:25:41.605Z,7.26
2022-10-11T04:26:41.612Z,7.20
2022-10-11T04:27:41.627Z,7.12
2022-10-11T04:28:41.695Z,7.04
2022-10-11T04:29:41.648Z,6.99
2022-10-11T04:30:41.665Z,6.94
2022-10-11T04:31:41.673Z,6.92
2022-10-11T04:32:41.679Z,6.86
2022-10-11T04:33:41.688Z,6.81
2022-10-11T04:34:41.705Z,6.79
2022-10-11T04:35:41.721Z,6.74
2022-10-11T04:36:43.573Z,6.70
2022-10-11T04:37:41.743Z,6.68
2022-10-11T04:38:41.750Z,6.66
2022-10-11T04:39:41.766Z,6.64
2022-10-11T04:40:41.782Z,6.61
2022-10-11T04:41:41.785Z,6.60
2022-10-11T04:42:41.805Z,6.59
2022-10-11T04:43:41.809Z,6.57
2022-10-11T04:44:41.828Z,6.56
2022-10-11T04:45:41.832Z,6.53
2022-10-11T04:46:41.848Z,6.54
2022-10-11T04:47:41.855Z,6.55
2022-10-11T04:48:41.866Z,6.53
2022-10-11T04:49:41.881Z,6.50
2022-10-11T04:50:41.899Z,6.45
2022-10-11T04:51:41.907Z,6.40
2022-10-11T04:52:41.923Z,6.42
2022-10-11T04:53:41.935Z,6.41
2022-10-11T04:54:41.955Z,6.40
2022-10-11T04:55:41.964Z,6.38
2022-10-11T04:56:41.983Z,6.35
2022-10-11T04:57:41.987Z,6.35
2022-10-11T04:58:42.010Z,6.32
2022-10-11T04:59:44.510Z,6.34
2022-10-11T05:00:42.046Z,6.34
2022-10-11T05:01:42.079Z,6.30
2022-10-11T05:02:42.061Z,6.31
2022-10-11T05:03:42.079Z,6.31
2022-10-11T05:04:42.090Z,6.32
2022-10-11T05:05:42.104Z,6.29
2022-10-11T05:06:42.122Z,6.34
2022-10-11T05:07:42.135Z,6.31
2022-10-11T05:08:42.143Z,6.31
2022-10-11T05:09:42.158Z,6.29
2022-10-11T05:10:42.175Z,6.29
2022-10-11T05:11:42.192Z,6.29
2022-10-11T05:12:42.197Z,6.28
2022-10-11T05:13:42.215Z,6.27
2022-10-11T05:14:42.234Z,6.25
2022-10-11T05:15:42.239Z,6.25
2022-10-11T05:16:42.246Z,6.24
2022-10-11T05:17:42.250Z,6.24
2022-10-11T05:18:42.272Z,6.21
2022-10-11T05:19:42.276Z,6.19
2022-10-11T05:20:42.291Z,6.17
2022-10-11T05:21:42.300Z,6.16
2022-10-11T05:22:42.303Z,6.16
2022-10-11T05:23:42.308Z,6.16
2022-10-11T05:24:42.328Z,6.14
2022-10-11T05:25:42.333Z,6.15
2022-10-11T05:26:42.353Z,6.18
2022-10-11T05:27:42.364Z,6.15
2022-10-11T05:28:42.461Z,6.15
2022-10-11T05:29:42.392Z,6.12
2022-10-11T05:30:42.407Z,6.11
2022-10-11T05:31:42.417Z,6.13
2022-10-11T05:32:42.422Z,6.13
2022-10-11T05:33:42.432Z,6.13
2022-10-11T05:34:42.439Z,6.13
2022-10-11T05:35:42.446Z,6.12
2022-10-11T05:36:42.463Z,6.12
2022-10-11T05:37:42.468Z,6.12
2022-10-11T05:38:42.475Z,6.13
2022-10-11T05:39:42.490Z,6.14
2022-10-11T05:40:42.508Z,6.15
2022-10-11T05:41:42.526Z,6.16
2022-10-11T05:42:42.543Z,6.17
2022-10-11T05:43:42.562Z,6.19
2022-10-11T05:44:42.582Z,6.19
2022-10-11T05:45:42.585Z,6.20
2022-10-11T05:46:42.589Z,6.25
2022-10-11T05:47:42.595Z,6.26
2022-10-11T05:48:42.613Z,6.28
2022-10-11T05:49:42.618Z,6.34
2022-10-11T05:50:42.638Z,6.40
2022-10-11T05:51:42.645Z,6.48
2022-10-11T05:52:42.670Z,6.54
2022-10-11T05:53:42.679Z,6.60
2022-10-11T05:54:42.682Z,6.71
2022-10-11T05:55:42.698Z,6.75
2022-10-11T05:56:42.717Z,6.81
2022-10-11T05:57:42.709Z,6.84
2022-10-11T05:58:42.728Z,6.89
2022-10-11T05:59:42.746Z,6.94
2022-10-11T06:00:42.765Z,6.99
2022-10-11T06:01:42.857Z,7.07
2022-10-11T06:02:42.800Z,7.12
2022-10-11T06:03:42.820Z,7.18
2022-10-11T06:04:42.830Z,7.24
2022-10-11T06:05:42.857Z,7.30
2022-10-11T06:06:42.865Z,7.33
2022-10-11T06:07:42.868Z,7.39
2022-10-11T06:08:42.888Z,7.40
2022-10-11T06:09:42.897Z,7.42
2022-10-11T06:10:42.919Z,7.41
2022-10-11T06:11:42.932Z,7.42
2022-10-11T06:12:42.948Z,7.37
2022-10-11T06:13:42.965Z,7.34
2022-10-11T06:14:42.971Z,7.32
2022-10-11T06:15:42.979Z,7.31
2022-10-11T06:16:42.983Z,7.29
2022-10-11T06:17:43.021Z,7.26
2022-10-11T06:18:43.002Z,7.23
2022-10-11T06:19:43.016Z,7.20
2022-10-11T06:20:43.030Z,7.16
2022-10-11T06:21:43.040Z,7.14
2022-10-11T06:22:43.048Z,7.09
2022-10-11T06:23:43.063Z,7.05
2022-10-11T06:24:43.081Z,7.04
2022-10-11T06:25:43.093Z,6.99
2022-10-11T06:26:43.096Z,6.97
2022-10-11T06:27:43.108Z,6.97
2022-10-11T06:28:43.182Z,6.98
2022-10-11T06:29:43.140Z,6.99
2022-10-11T06:30:43.141Z,6.99
2022-10-11T06:31:43.160Z,6.98
2022-10-11T06:32:43.169Z,7.00
2022-10-11T06:33:43.174Z,6.99
2022-10-11T06:34:43.193Z,7.00
2022-10-11T06:35:43.215Z,7.03
2022-10-11T06:36:43.229Z,7.04
2022-10-11T06:37:43.235Z,7.05
2022-10-11T06:38:45.124Z,7.03
2022-10-11T06:39:43.247Z,7.06
2022-10-11T06:40:43.266Z,7.09
2022-10-11T06:41:43.271Z,7.11
2022-10-11T06:42:43.292Z,7.12
2022-10-11T06:43:43.298Z,7.11
2022-10-11T06:44:43.315Z,7.10
2022-10-11T06:45:43.324Z,7.15
2022-10-11T06:46:43.332Z,7.15
2022-10-11T06:47:43.344Z,7.19
2022-10-11T06:48:43.355Z,7.20
2022-10-11T06:49:43.379Z,7.19
2022-10-11T06:50:58.901Z,7.25
2022-10-11T06:51:43.392Z,7.22
2022-10-11T06:52:43.401Z,7.21
2022-10-11T06:53:43.409Z,7.23
2022-10-11T06:54:44.960Z,7.24
2022-10-11T06:55:43.436Z,7.27
2022-10-11T06:56:43.455Z,7.28
2022-10-11T06:57:43.460Z,7.30
2022-10-11T06:58:43.482Z,7.32
2022-10-11T06:59:43.494Z,7.33
2022-10-11T07:00:43.540Z,7.34
2022-10-11T07:01:43.520Z,7.37
2022-10-11T07:02:43.524Z,7.43
2022-10-11T07:03:43.536Z,7.44
2022-10-11T07:04:43.541Z,7.48
2022-10-11T07:05:43.556Z,7.49
2022-10-11T07:06:43.566Z,7.50
2022-10-11T07:07:43.576Z,7.51
2022-10-11T07:08:43.588Z,7.54
2022-10-11T07:09:43.595Z,7.55
2022-10-11T07:10:43.615Z,7.59
2022-10-11T07:11:43.623Z,7.61
2022-10-11T07:12:43.640Z,7.62
2022-10-11T07:13:43.653Z,7.66
2022-10-11T07:14:43.657Z,7.70
2022-10-11T07:15:43.666Z,7.72
2022-10-11T07:16:43.672Z,7.73
2022-10-11T07:17:43.682Z,7.72
2022-10-11T07:18:43.689Z,7.75
2022-10-11T07:19:43.704Z,7.75
2022-10-11T07:20:43.739Z,7.77
2022-10-11T07:21:43.730Z,7.81
2022-10-11T07:22:43.733Z,7.83
2022-10-11T07:23:43.741Z,7.86
2022-10-11T07:24:43.747Z,7.86
2022-10-11T07:25:43.768Z,7.87
2022-10-11T07:26:43.773Z,7.87
2022-10-11T07:27:43.792Z,7.90
2022-10-11T07:28:43.883Z,7.92
2022-10-11T07:29:43.821Z,7.96
2022-10-11T07:30:43.832Z,7.98
2022-10-11T07:31:43.834Z,8.02
2022-10-11T07:32:43.849Z,8.00
2022-10-11T07:33:43.862Z,8.07
2022-10-11T07:34:43.869Z,8.05
2022-10-11T07:35:48.144Z,8.07
2022-10-11T07:36:43.886Z,8.10
2022-10-11T07:37:43.893Z,8.13
2022-10-11T07:38:43.906Z,8.15
2022-10-11T07:39:43.924Z,8.18
2022-10-11T07:40:43.931Z,8.20
2022-10-11T07:41:45.999Z,8.23
2022-10-11T07:42:43.963Z,8.26
2022-10-11T07:43:43.998Z,8.31
2022-10-11T07:44:43.993Z,8.32
2022-10-11T07:45:43.998Z,8.35
2022-10-11T07:46:44.013Z,8.36
2022-10-11T07:47:44.015Z,8.38
2022-10-11T07:48:44.023Z,8.40
2022-10-11T07:49:44.041Z,8.40
2022-10-11T07:50:44.048Z,8.42
2022-10-11T07:51:44.067Z,8.45
2022-10-11T07:52:44.083Z,8.47
2022-10-11T07:53:44.093Z,8.48
2022-10-11T07:54:44.100Z,8.50
2022-10-11T07:55:44.119Z,8.51
2022-10-11T07:56:44.127Z,8.54
2022-10-11T07:57:44.149Z,8.57
2022-10-11T07:58:44.154Z,8.65
2022-10-11T07:59:47.931Z,8.71
2022-10-11T08:00:44.182Z,8.76
2022-10-11T08:01:44.242Z,8.83
2022-10-11T08:02:44.207Z,8.84
2022-10-11T08:03:44.230Z,8.88
2022-10-11T08:04:44.231Z,8.95
2022-10-11T08:05:44.243Z,8.99
2022-10-11T08:06:44.268Z,9.01
2022-10-11T08:07:44.273Z,9.04
2022-10-11T08:08:44.287Z,9.08
2022-10-11T08:09:44.298Z,9.11
2022-10-11T08:10:44.339Z,9.15
2022-10-11T08:11:44.318Z,9.13
2022-10-11T08:12:44.335Z,9.14
2022-10-11T08:13:44.351Z,9.13
2022-10-11T08:14:44.351Z,9.16
2022-10-11T08:15:44.368Z,9.18
2022-10-11T08:16:44.385Z,9.21
2022-10-11T08:17:44.399Z,9.18
2022-10-11T08:18:44.419Z,9.19
2022-10-11T08:19:44.429Z,9.23
2022-10-11T08:20:44.447Z,9.23
2022-10-11T08:21:44.456Z,9.25
2022-10-11T08:22:44.496Z,9.27
2022-10-11T08:23:44.489Z,9.27
2022-10-11T08:24:44.495Z,9.31
2022-10-11T08:25:44.512Z,9.31
2022-10-11T08:26:44.522Z,9.33
2022-10-11T08:27:44.529Z,9.38
2022-10-11T08:28:44.677Z,9.36
2022-10-11T08:29:44.564Z,9.41
2022-10-11T08:30:44.563Z,9.43
2022-10-11T08:31:44.582Z,9.46
2022-10-11T08:32:44.594Z,9.47
2022-10-11T08:33:44.602Z,9.49
2022-10-11T08:34:44.609Z,9.50
2022-10-11T08:35:44.614Z,9.53
2022-10-11T08:36:44.628Z,9.54
2022-10-11T08:37:44.632Z,9.58
2022-10-11T08:38:44.642Z,9.63
2022-10-11T08:39:44.646Z,9.63
2022-10-11T08:40:44.649Z,9.65
2022-10-11T08:41:44.657Z,9.67
2022-10-11T08:42:44.664Z,9.65
2022-10-11T08:43:44.669Z,9.70
2022-10-11T08:45:44.681Z,9.70
2022-10-11T08:46:44.690Z,9.68
2022-10-11T08:47:44.696Z,9.70
2022-10-11T08:48:44.700Z,9.73
2022-10-11T08:49:44.706Z,9.75
2022-10-11T08:50:44.713Z,9.78
2022-10-11T08:51:44.719Z,9.77
2022-10-11T08:52:44.734Z,9.80
2022-10-11T08:53:44.735Z,9.82
2022-10-11T08:54:44.749Z,9.83
2022-10-11T08:55:44.753Z,9.85
2022-10-11T08:56:44.765Z,9.88
2022-10-11T08:57:44.771Z,9.92
2022-10-11T08:58:44.785Z,9.94
2022-10-11T08:59:44.789Z,9.96
2022-10-11T09:00:44.802Z,10.00
2022-10-11T09:01:44.848Z,10.01
2022-10-11T09:03:06.711Z,10.01
2022-10-11T09:03:44.818Z,10.03
2022-10-11T09:04:44.824Z,10.03
2022-10-11T09:05:44.831Z,10.04
2022-10-11T09:06:44.847Z,10.02
2022-10-11T09:07:44.843Z,10.05
2022-10-11T09:08:44.852Z,10.05
2022-10-11T09:09:44.856Z,10.10
2022-10-11T09:10:44.862Z,10.12
2022-10-11T09:11:44.877Z,10.12
2022-10-11T09:12:44.878Z,10.11
2022-10-11T09:13:44.883Z,10.15
2022-10-11T09:14:44.892Z,10.18
2022-10-11T09:15:44.902Z,10.20
2022-10-11T09:16:44.911Z,10.22
2022-10-11T09:17:44.914Z,10.22
2022-10-11T09:18:44.923Z,10.25
2022-10-11T09:19:44.971Z,10.31
2022-10-11T09:20:44.935Z,10.28
2022-10-11T09:21:44.943Z,10.29
2022-10-11T09:22:44.951Z,10.34
2022-10-11T09:23:44.957Z,10.34
2022-10-11T09:24:44.963Z,10.36
2022-10-11T09:25:44.969Z,10.37
2022-10-11T09:26:44.977Z,10.38
2022-10-11T09:28:01.621Z,10.42
2022-10-11T09:28:45.062Z,10.46
2022-10-11T09:29:45.005Z,10.50
2022-10-11T09:30:45.014Z,10.55
2022-10-11T09:31:45.020Z,10.59
2022-10-11T09:32:45.029Z,10.61
2022-10-11T09:33:45.034Z,10.65
2022-10-11T09:34:45.046Z,10.69
2022-10-11T09:35:45.051Z,10.69
2022-10-11T09:36:45.064Z,10.65
2022-10-11T09:37:45.069Z,10.68
2022-10-11T09:38:45.075Z,10.71
2022-10-11T09:39:45.081Z,10.76
2022-10-11T09:40:45.094Z,10.82
2022-10-11T09:41:45.095Z,10.86
2022-10-11T09:42:45.108Z,10.89
2022-10-11T09:43:45.114Z,10.89
2022-10-11T09:44:45.121Z,10.87
2022-10-11T09:45:49.092Z,10.93
2022-10-11T09:46:45.139Z,10.97
2022-10-11T09:47:45.148Z,11.01
2022-10-11T09:48:45.159Z,11.00
2022-10-11T09:49:45.165Z,11.04
2022-10-11T09:50:45.174Z,11.04
2022-10-11T09:51:45.184Z,11.09
2022-10-11T09:52:45.183Z,11.12
2022-10-11T09:53:45.189Z,11.18
2022-10-11T09:54:45.199Z,11.19
2022-10-11T09:55:45.201Z,11.23
2022-10-11T09:56:45.206Z,11.31
2022-10-11T09:57:45.213Z,11.39
2022-10-11T09:58:45.219Z,11.42
2022-10-11T09:59:45.226Z,11.49
2022-10-11T10:00:45.234Z,11.59
2022-10-11T10:01:45.266Z,11.69
2022-10-11T10:02:45.251Z,11.77
2022-10-11T10:03:45.256Z,11.90
2022-10-11T10:04:45.260Z,11.99
2022-10-11T10:05:45.267Z,12.15
2022-10-11T10:06:45.273Z,12.30
2022-10-11T10:07:45.277Z,12.47
2022-10-11T10:08:45.283Z,12.64
2022-10-11T10:09:45.290Z,12.83
2022-10-11T10:10:45.305Z,13.01
2022-10-11T10:11:45.300Z,13.18
2022-10-11T10:12:45.308Z,13.34
2022-10-11T10:13:45.312Z,13.53
2022-10-11T10:14:45.318Z,13.68
2022-10-11T10:15:45.325Z,13.74
2022-10-11T10:16:45.329Z,13.82
2022-10-11T10:17:45.336Z,13.88
2022-10-11T10:18:45.340Z,13.97
2022-10-11T10:19:45.501Z,13.96
2022-10-11T10:20:45.354Z,13.94
2022-10-11T10:21:45.357Z,13.85
2022-10-11T10:22:45.367Z,13.71
2022-10-11T10:23:45.373Z,13.73
2022-10-11T10:24:45.385Z,13.70
2022-10-11T10:25:45.388Z,13.67
2022-10-11T10:26:45.400Z,13.60
2022-10-11T10:27:45.415Z,13.49
2022-10-11T10:28:45.461Z,13.44
2022-10-11T10:29:45.415Z,13.38
2022-10-11T10:30:45.418Z,13.43
2022-10-11T10:32:09.104Z,13.42
2022-10-11T10:32:48.445Z,13.43
2022-10-11T10:33:45.437Z,13.45
2022-10-11T10:34:45.440Z,13.48
2022-10-11T10:35:45.458Z,13.47
2022-10-11T10:36:45.453Z,13.49
2022-10-11T10:37:45.458Z,13.50
2022-10-11T10:38:48.634Z,13.44
2022-10-11T10:39:45.470Z,13.51
2022-10-11T10:40:45.486Z,13.52
2022-10-11T10:41:45.495Z,13.51
2022-10-11T10:42:45.501Z,13.59
2022-10-11T10:43:45.509Z,13.63
2022-10-11T10:44:45.516Z,13.71
2022-10-11T10:45:45.521Z,13.72
2022-10-11T10:46:45.528Z,13.79
2022-10-11T10:47:45.552Z,13.80
2022-10-11T10:49:23.486Z,13.85
2022-10-11T10:49:54.340Z,13.82
2022-10-11T10:50:45.565Z,14.01
2022-10-11T10:51:45.572Z,14.01
2022-10-11T10:52:45.584Z,13.97
2022-10-11T10:53:45.587Z,14.00
2022-10-11T10:54:45.597Z,13.99
2022-10-11T10:55:45.603Z,13.96
2022-10-11T10:56:45.614Z,13.98
2022-10-11T10:57:45.620Z,14.07
2022-10-11T10:58:45.629Z,14.09
2022-10-11T10:59:45.632Z,14.18
2022-10-11T11:00:45.645Z,14.20
2022-10-11T11:01:45.702Z,14.22
2022-10-11T11:02:45.715Z,14.26
2022-10-11T11:03:45.665Z,14.30
2022-10-11T11:04:45.690Z,14.30
2022-10-11T11:05:45.678Z,14.33
2022-10-11T11:06:45.685Z,14.30
2022-10-11T11:07:45.691Z,14.26
2022-10-11T11:08:45.700Z,14.20
2022-10-11T11:09:45.705Z,14.11
2022-10-11T11:10:45.718Z,13.99
2022-10-11T11:11:45.725Z,13.86
2022-10-11T11:12:45.732Z,13.77
2022-10-11T11:13:45.739Z,13.68
2022-10-11T11:14:45.749Z,13.59
2022-10-11T11:15:45.755Z,13.56
2022-10-11T11:16:45.769Z,13.57
2022-10-11T11:17:45.773Z,13.58
2022-10-11T11:18:45.784Z,13.60
2022-10-11T11:19:45.788Z,13.65
2022-10-11T11:20:45.796Z,13.64
2022-10-11T11:21:45.801Z,13.64
2022-10-11T11:22:45.808Z,13.68
2022-10-11T11:23:45.815Z,13.72
2022-10-11T11:24:45.829Z,13.77
2022-10-11T11:25:45.824Z,13.82
2022-10-11T11:26:45.835Z,13.83
2022-10-11T11:27:45.837Z,13.84
2022-10-11T11:28:45.866Z,13.88
2022-10-11T11:29:45.856Z,13.92
2022-10-11T11:30:45.856Z,13.92
2022-10-11T11:31:45.862Z,13.90
2022-10-11T11:32:46.024Z,13.87
2022-10-11T11:33:48.747Z,13.84
2022-10-11T11:34:45.880Z,13.87
2022-10-11T11:35:45.888Z,13.88
2022-10-11T11:36:45.925Z,13.89
2022-10-11T11:37:45.898Z,13.93
2022-10-11T11:38:45.906Z,13.92
2022-10-11T11:39:45.913Z,13.95
2022-10-11T11:40:45.915Z,14.00
2022-10-11T11:41:45.922Z,14.09
2022-10-11T11:42:45.926Z,14.12
2022-10-11T11:43:45.932Z,14.14
2022-10-11T11:44:45.938Z,14.19
2022-10-11T11:45:45.950Z,14.17
2022-10-11T11:46:45.953Z,14.21
2022-10-11T11:47:45.961Z,14.21
2022-10-11T11:48:45.967Z,14.20
2022-10-11T11:49:45.986Z,14.07
2022-10-11T11:50:45.988Z,13.98
2022-10-11T11:51:45.998Z,13.85
2022-10-11T11:52:46.003Z,13.83
2022-10-11T11:53:46.010Z,13.80
2022-10-11T11:54:46.016Z,13.74
2022-10-11T11:55:46.020Z,13.73
2022-10-11T11:56:46.027Z,13.72
2022-10-11T11:57:46.034Z,13.68
2022-10-11T11:58:46.039Z,13.70
2022-10-11T11:59:46.044Z,13.75
2022-10-11T12:00:46.054Z,13.84
2022-10-11T12:01:46.093Z,13.91
2022-10-11T12:02:46.064Z,14.02
2022-10-11T12:03:46.070Z,14.12
2022-10-11T12:04:46.075Z,14.22
2022-10-11T12:05:46.083Z,14.33
2022-10-11T12:07:04.301Z,14.38
2022-10-11T12:07:46.094Z,14.44
2022-10-11T12:08:46.103Z,14.50
2022-10-11T12:09:46.110Z,14.54
2022-10-11T12:10:46.114Z,14.46
2022-10-11T12:11:46.120Z,14.36
2022-10-11T12:12:46.128Z,14.26
2022-10-11T12:13:46.132Z,14.22
2022-10-11T12:14:46.138Z,14.15
2022-10-11T12:15:46.153Z,14.12
2022-10-11T12:16:46.152Z,14.08
2022-10-11T12:17:46.158Z,13.99
2022-10-11T12:18:46.164Z,13.94
2022-10-11T12:19:46.175Z,13.90
2022-10-11T12:20:46.179Z,13.86
2022-10-11T12:21:46.185Z,13.80
2022-10-11T12:22:46.192Z,13.82
2022-10-11T12:23:46.202Z,13.79
2022-10-11T12:24:46.203Z,13.74
2022-10-11T12:25:46.212Z,13.73
2022-10-11T12:26:46.215Z,13.72
2022-10-11T12:27:46.221Z,13.70
2022-10-11T12:28:46.302Z,13.68
2022-10-11T12:29:46.234Z,13.70
2022-10-11T12:30:46.240Z,13.68
2022-10-11T12:31:46.387Z,13.65
2022-10-11T12:32:46.260Z,13.68
2022-10-11T12:33:46.261Z,13.69
2022-10-11T12:34:46.270Z,13.73
2022-10-11T12:35:46.277Z,13.80
2022-10-11T12:36:46.291Z,13.82
2022-10-11T12:37:46.296Z,13.81
2022-10-11T12:38:46.306Z,13.82
2022-10-11T12:39:46.310Z,13.82
2022-10-11T12:40:46.326Z,13.85
2022-10-11T12:41:46.329Z,13.91
2022-10-11T12:42:46.339Z,13.92
2022-10-11T12:43:46.346Z,13.94
2022-10-11T12:44:46.358Z,13.96
2022-10-11T12:45:46.365Z,14.03
2022-10-11T12:46:46.372Z,14.09
2022-10-11T12:47:46.381Z,14.15
2022-10-11T12:48:46.392Z,14.25
2022-10-11T12:49:46.395Z,14.29
2022-10-11T12:50:46.401Z,14.37
2022-10-11T12:51:46.406Z,14.42
2022-10-11T12:52:46.417Z,14.39
2022-10-11T12:53:57.654Z,14.42
2022-10-11T12:54:46.428Z,14.48
2022-10-11T12:55:46.433Z,14.56
2022-10-11T12:56:46.448Z,14.63
2022-10-11T12:57:46.759Z,14.74
2022-10-11T12:58:46.459Z,14.84
2022-10-11T12:59:46.464Z,14.92
2022-10-11T13:00:46.601Z,14.98
2022-10-11T13:01:46.498Z,15.07
2022-10-11T13:02:46.485Z,15.18
2022-10-11T13:03:46.485Z,15.22
2022-10-11T13:04:46.499Z,15.32
2022-10-11T13:05:49.841Z,15.47
2022-10-11T13:06:46.517Z,15.50
2022-10-11T13:07:46.519Z,15.55
2022-10-11T13:08:46.529Z,15.64
2022-10-11T13:09:49.060Z,15.66
2022-10-11T13:10:46.539Z,15.66
2022-10-11T13:11:46.547Z,15.66
2022-10-11T13:12:46.557Z,15.69
2022-10-11T13:13:46.559Z,15.74
2022-10-11T13:14:46.567Z,15.72
2022-10-11T13:15:46.572Z,15.60
2022-10-11T13:16:46.578Z,15.59
2022-10-11T13:17:46.589Z,15.55
2022-10-11T13:18:46.594Z,15.43
2022-10-11T13:19:46.608Z,15.38
2022-10-11T13:20:46.613Z,15.20
2022-10-11T13:21:46.624Z,15.10
2022-10-11T13:22:46.629Z,15.03
2022-10-11T13:23:46.641Z,14.92
2022-10-11T13:24:46.646Z,14.81
2022-10-11T13:25:46.651Z,14.71
2022-10-11T13:26:46.658Z,14.64
2022-10-11T13:27:46.666Z,14.65